Copper Canyon, Texas
Current Conditions -  °F | °C
As of 6:53 PM on Tuesday 21 Oct 2014 (Local Time) from KDFW Reporting Station
Few Clouds Few Clouds  
Wind Chill: 74°   Ceiling: Unl
Heat Index: 74°   Visibility: 10mi
Dew Point: 57°   Wind: 8mph
Humidity: 55%   Direction: 130°SE
Pressure: 30.03"   Gusts: NA
Location:  33.0461°N, 96.9938°W
Report Text: KDFW 212353Z 13007KT 10SM FEW055 FEW300 23/14 A3003 RMK AO2 SLP162 T02330139 10278 20233 53000
Loading
Personal Weather Stations






























Interactive Weather Map
Tropical Storm Tracking
New forecast layout! Learn more

10-Day Weather Forecast

Advertisements
Track Severe Weather on mobile